createdAt,value
2017-06-05T00:00:29.059Z,9.3
2017-06-05T00:01:29.065Z,9.29
2017-06-05T00:02:28.722Z,9.29
2017-06-05T00:03:28.740Z,9.29
2017-06-05T00:04:28.714Z,9.29
2017-06-05T00:05:29.017Z,9.37
2017-06-05T00:06:28.686Z,9.27
2017-06-05T00:07:28.688Z,9.26
2017-06-05T00:08:28.675Z,9.3
2017-06-05T00:09:28.987Z,9.34
2017-06-05T00:10:28.658Z,9.3
2017-06-05T00:11:28.640Z,9.32
2017-06-05T00:12:28.657Z,9.35
2017-06-05T00:13:28.945Z,9.35
2017-06-05T00:14:28.302Z,9.27
2017-06-05T00:15:28.608Z,9.38
2017-06-05T00:16:28.598Z,9.34
2017-06-05T00:17:28.937Z,9.35
2017-06-05T00:18:28.902Z,9.29
2017-06-05T00:19:28.915Z,9.35
2017-06-05T00:20:28.255Z,9.32
2017-06-05T00:21:28.879Z,9.32
2017-06-05T00:22:28.891Z,9.29
2017-06-05T00:23:28.544Z,9.32
2017-06-05T00:24:28.903Z,9.32
2017-06-05T00:25:28.554Z,9.38
2017-06-05T00:26:28.838Z,9.3
2017-06-05T00:27:28.927Z,9.38
2017-06-05T00:28:28.834Z,9.3
2017-06-05T00:29:28.168Z,9.32
2017-06-05T00:30:28.820Z,9.34
2017-06-05T00:31:28.483Z,9.38
2017-06-05T00:32:28.790Z,9.41
2017-06-05T00:33:28.788Z,9.3
2017-06-05T00:34:28.772Z,9.29
2017-06-05T00:35:28.758Z,9.3
2017-06-05T00:36:28.426Z,9.26
2017-06-05T00:37:28.751Z,9.17
2017-06-05T00:38:28.760Z,9.21
2017-06-05T00:39:28.420Z,9.16
2017-06-05T00:40:28.093Z,9.17
2017-06-05T00:41:28.064Z,9.21
2017-06-05T00:42:28.373Z,9.17
2017-06-05T00:43:28.734Z,9.21
2017-06-05T00:44:28.066Z,9.24
2017-06-05T00:45:28.670Z,9.17
2017-06-05T00:46:28.728Z,9.16
2017-06-05T00:47:28.677Z,9.05
2017-06-05T00:48:28.329Z,9.09
2017-06-05T00:49:28.642Z,9.12
2017-06-05T00:50:28.302Z,9.05
2017-06-05T00:51:28.297Z,9.03
2017-06-05T00:52:28.625Z,9.09
2017-06-05T00:53:28.603Z,9.01
2017-06-05T00:54:28.593Z,8.98
2017-06-05T00:55:28.587Z,9.05
2017-06-05T00:56:28.255Z,9
2017-06-05T00:57:28.570Z,8.98
2017-06-05T00:58:28.586Z,8.98
2017-06-05T00:59:28.551Z,9.01
2017-06-05T01:00:28.576Z,9.09
2017-06-05T01:01:28.531Z,8.98
2017-06-05T01:02:28.206Z,9.04
2017-06-05T01:03:28.515Z,9
2017-06-05T01:04:28.510Z,9.14
2017-06-05T01:05:27.855Z,8.98
2017-06-05T01:06:27.853Z,8.94
2017-06-05T01:07:28.179Z,9.03
2017-06-05T01:08:28.477Z,9.01
2017-06-05T01:09:28.161Z,8.97
2017-06-05T01:10:28.478Z,9.09
2017-06-05T01:11:28.143Z,9
2017-06-05T01:12:28.137Z,8.97
2017-06-05T01:13:28.426Z,9
2017-06-05T01:14:28.094Z,9.04
2017-06-05T01:15:28.411Z,9.03
2017-06-05T01:16:30.241Z,8.98
2017-06-05T01:17:28.396Z,8.85
2017-06-05T01:18:28.060Z,8.94
2017-06-05T01:19:27.733Z,8.95
2017-06-05T01:20:28.367Z,8.9
2017-06-05T01:21:27.729Z,8.98
2017-06-05T01:22:28.349Z,9.01
2017-06-05T01:23:28.373Z,8.94
2017-06-05T01:24:28.338Z,8.95
2017-06-05T01:25:28.002Z,9.01
2017-06-05T01:26:28.346Z,8.79
2017-06-05T01:27:27.984Z,8.92
2017-06-05T01:28:27.986Z,8.86
2017-06-05T01:29:28.316Z,8.85
2017-06-05T01:30:27.971Z,8.83
2017-06-05T01:31:27.634Z,8.8
2017-06-05T01:32:28.257Z,8.74
2017-06-05T01:33:27.604Z,8.72
2017-06-05T01:34:27.917Z,8.82
2017-06-05T01:35:27.907Z,8.8
2017-06-05T01:36:27.899Z,8.74
2017-06-05T01:37:27.896Z,8.85
2017-06-05T01:38:28.228Z,8.87
2017-06-05T01:39:28.232Z,8.89
2017-06-05T01:40:27.865Z,8.72
2017-06-05T01:41:28.188Z,8.72
2017-06-05T01:42:28.165Z,8.77
2017-06-05T01:43:27.839Z,8.71
2017-06-05T01:44:27.506Z,8.72
2017-06-05T01:45:27.857Z,8.72
2017-06-05T01:46:28.130Z,8.68
2017-06-05T01:47:28.134Z,8.76
2017-06-05T01:48:28.135Z,8.72
2017-06-05T01:49:28.126Z,8.74
2017-06-05T01:50:28.093Z,8.68
2017-06-05T01:51:27.778Z,8.76
2017-06-05T01:52:27.771Z,8.77
2017-06-05T01:53:28.062Z,8.71
2017-06-05T01:54:28.090Z,8.71
2017-06-05T01:55:27.739Z,8.76
2017-06-05T01:56:27.718Z,8.74
2017-06-05T01:57:28.435Z,8.69
2017-06-05T01:58:28.025Z,8.72
2017-06-05T01:59:28.018Z,8.71
2017-06-05T02:00:27.680Z,8.61
2017-06-05T02:01:27.990Z,8.68
2017-06-05T02:02:28.927Z,8.62
2017-06-05T02:03:28.689Z,8.58
2017-06-05T02:04:27.325Z,8.49
2017-06-05T02:05:27.312Z,8.52
2017-06-05T02:06:27.940Z,8.49
2017-06-05T02:07:27.948Z,8.58
2017-06-05T02:08:28.016Z,8.5
2017-06-05T02:09:27.936Z,8.62
2017-06-05T02:10:27.927Z,8.53
2017-06-05T02:11:28.322Z,8.62
2017-06-05T02:12:27.901Z,8.57
2017-06-05T02:13:27.889Z,8.53
2017-06-05T02:14:27.623Z,8.64
2017-06-05T02:15:27.861Z,8.47
2017-06-05T02:16:27.853Z,8.62
2017-06-05T02:17:28.553Z,8.49
2017-06-05T02:18:28.614Z,8.58
2017-06-05T02:19:28.117Z,8.58
2017-06-05T02:20:27.865Z,8.52
2017-06-05T02:21:27.818Z,8.47
2017-06-05T02:22:27.480Z,8.57
2017-06-05T02:23:27.472Z,8.5
2017-06-05T02:24:28.163Z,8.5
2017-06-05T02:25:28.523Z,8.5
2017-06-05T02:26:28.013Z,8.49
2017-06-05T02:27:27.770Z,8.49
2017-06-05T02:28:27.423Z,8.43
2017-06-05T02:29:27.434Z,8.4
2017-06-05T02:30:27.424Z,8.44
2017-06-05T02:31:27.951Z,8.42
2017-06-05T02:32:28.153Z,8.42
2017-06-05T02:33:27.378Z,8.28
2017-06-05T02:34:28.488Z,8.34
2017-06-05T02:35:27.499Z,8.35
2017-06-05T02:36:27.348Z,8.29
2017-06-05T02:37:27.656Z,8.26
2017-06-05T02:38:27.012Z,8.31
2017-06-05T02:39:27.981Z,8.21
2017-06-05T02:40:27.631Z,8.22
2017-06-05T02:41:27.307Z,8.19
2017-06-05T02:42:27.606Z,8.24
2017-06-05T02:43:27.596Z,8.24
2017-06-05T02:44:27.589Z,8.21
2017-06-05T02:45:28.539Z,8.13
2017-06-05T02:46:27.978Z,8.17
2017-06-05T02:47:27.573Z,8.25
2017-06-05T02:48:27.554Z,8.06
2017-06-05T02:49:27.977Z,8.24
2017-06-05T02:50:27.697Z,8.06
2017-06-05T02:51:27.531Z,8.22
2017-06-05T02:52:27.562Z,8.14
2017-06-05T02:53:27.205Z,8.34
2017-06-05T02:54:27.491Z,8.24
2017-06-05T02:55:28.465Z,8.24
2017-06-05T02:56:27.459Z,8.21
2017-06-05T02:57:27.167Z,8.19
2017-06-05T02:58:27.453Z,8.19
2017-06-05T02:59:27.136Z,8.34
2017-06-05T03:00:27.474Z,8.22
2017-06-05T03:01:27.443Z,8.22
2017-06-05T03:02:27.718Z,8.34
2017-06-05T03:03:27.424Z,8.24
2017-06-05T03:04:27.957Z,8.24
2017-06-05T03:05:27.084Z,8.31
2017-06-05T03:06:27.417Z,8.28
2017-06-05T03:07:26.728Z,8.28
2017-06-05T03:08:27.383Z,8.31
2017-06-05T03:09:28.200Z,8.32
2017-06-05T03:10:27.459Z,8.34
2017-06-05T03:11:27.347Z,8.47
2017-06-05T03:12:28.279Z,8.53
2017-06-05T03:13:26.994Z,8.6
2017-06-05T03:14:27.003Z,8.62
2017-06-05T03:15:27.295Z,8.64
2017-06-05T03:16:28.158Z,8.68
2017-06-05T03:17:27.281Z,8.72
2017-06-05T03:18:26.986Z,8.71
2017-06-05T03:19:26.965Z,8.83
2017-06-05T03:20:27.280Z,8.85
2017-06-05T03:21:26.951Z,8.82
2017-06-05T03:22:27.157Z,8.87
2017-06-05T03:23:28.046Z,8.97
2017-06-05T03:24:26.896Z,8.95
2017-06-05T03:25:26.914Z,9.03
2017-06-05T03:26:26.875Z,8.94
2017-06-05T03:27:27.186Z,9.14
2017-06-05T03:28:26.533Z,8.94
2017-06-05T03:29:27.192Z,8.98
2017-06-05T03:30:27.335Z,9
2017-06-05T03:31:27.148Z,9.03
2017-06-05T03:32:26.822Z,9.01
2017-06-05T03:33:27.139Z,9.01
2017-06-05T03:34:27.435Z,9.17
2017-06-05T03:35:28.129Z,9.19
2017-06-05T03:36:27.101Z,9.16
2017-06-05T03:37:26.774Z,9.2
2017-06-05T03:38:27.109Z,9.21
2017-06-05T03:39:26.755Z,9.17
2017-06-05T03:40:26.989Z,9.21
2017-06-05T03:41:27.059Z,9.3
2017-06-05T03:42:27.048Z,9.38
2017-06-05T03:43:26.719Z,9.35
2017-06-05T03:44:27.270Z,9.32
2017-06-05T03:45:27.279Z,9.44
2017-06-05T03:46:26.710Z,9.35
2017-06-05T03:47:26.410Z,9.29
2017-06-05T03:48:26.682Z,9.47
2017-06-05T03:49:27.492Z,9.47
2017-06-05T03:50:27.582Z,9.45
2017-06-05T03:51:26.645Z,9.52
2017-06-05T03:52:26.316Z,9.56
2017-06-05T03:53:26.654Z,9.67
2017-06-05T03:54:26.876Z,9.71
2017-06-05T03:55:26.947Z,9.8
2017-06-05T03:56:26.924Z,9.85
2017-06-05T03:57:26.598Z,9.95
2017-06-05T03:58:26.587Z,9.99
2017-06-05T03:59:27.490Z,10.14
2017-06-05T04:00:26.681Z,10.13
2017-06-05T04:01:26.881Z,10.15
2017-06-05T04:02:26.908Z,10.17
2017-06-05T04:03:26.868Z,10.23
2017-06-05T04:04:27.580Z,10.41
2017-06-05T04:05:27.427Z,10.46
2017-06-05T04:06:27.336Z,10.51
2017-06-05T04:07:26.830Z,10.52
2017-06-05T04:08:26.853Z,10.54
2017-06-05T04:09:27.688Z,10.58
2017-06-05T04:10:26.937Z,10.59
2017-06-05T04:11:26.498Z,10.67
2017-06-05T04:12:26.803Z,10.67
2017-06-05T04:13:27.037Z,10.72
2017-06-05T04:14:27.754Z,10.61
2017-06-05T04:15:26.771Z,10.65
2017-06-05T04:16:26.771Z,10.59
2017-06-05T04:17:26.747Z,10.67
2017-06-05T04:18:27.577Z,10.67
2017-06-05T04:19:26.444Z,10.63
2017-06-05T04:20:26.751Z,10.58
2017-06-05T04:21:26.942Z,10.55
2017-06-05T04:22:26.921Z,10.51
2017-06-05T04:23:26.061Z,10.49
2017-06-05T04:24:26.697Z,10.55
2017-06-05T04:25:26.374Z,10.61
2017-06-05T04:26:27.261Z,10.67
2017-06-05T04:27:26.831Z,10.76
2017-06-05T04:28:26.346Z,10.8
2017-06-05T04:29:26.661Z,10.88
2017-06-05T04:30:26.649Z,10.88
2017-06-05T04:31:26.745Z,10.95
2017-06-05T04:32:26.544Z,11
2017-06-05T04:33:26.626Z,11.02
2017-06-05T04:34:26.621Z,11.12
2017-06-05T04:35:26.613Z,11.15
2017-06-05T04:36:26.603Z,11.31
2017-06-05T04:37:26.748Z,11.3
2017-06-05T04:38:26.271Z,11.34
2017-06-05T04:39:27.494Z,11.46
2017-06-05T04:40:26.256Z,11.42
2017-06-05T04:41:26.619Z,11.51
2017-06-05T04:42:26.255Z,11.57
2017-06-05T04:43:26.764Z,11.61
2017-06-05T04:44:27.524Z,11.66
2017-06-05T04:45:26.394Z,11.76
2017-06-05T04:46:26.534Z,11.79
2017-06-05T04:47:26.205Z,12.01
2017-06-05T04:48:25.886Z,12.03
2017-06-05T04:49:26.509Z,12.19
2017-06-05T04:50:26.977Z,12.38
2017-06-05T04:51:27.014Z,12.41
2017-06-05T04:52:26.164Z,12.53
2017-06-05T04:53:25.837Z,12.58
2017-06-05T04:54:26.151Z,12.73
2017-06-05T04:55:27.329Z,12.81
2017-06-05T04:56:27.049Z,13.01
2017-06-05T04:57:26.236Z,13.1
2017-06-05T04:58:26.446Z,13.17
2017-06-05T04:59:26.497Z,13.2
2017-06-05T05:00:26.437Z,13.29
2017-06-05T05:01:26.449Z,13.42
2017-06-05T05:02:26.595Z,13.42
2017-06-05T05:03:26.332Z,13.48
2017-06-05T05:04:26.415Z,13.53
2017-06-05T05:05:26.407Z,13.63
2017-06-05T05:06:26.398Z,13.58
2017-06-05T05:07:26.268Z,13.69
2017-06-05T05:08:26.088Z,13.69
2017-06-05T05:09:26.061Z,13.73
2017-06-05T05:10:26.058Z,13.88
2017-06-05T05:11:26.521Z,13.87
2017-06-05T05:12:26.042Z,13.91
2017-06-05T05:13:26.047Z,14.05
2017-06-05T05:14:26.035Z,13.91
2017-06-05T05:15:26.365Z,13.93
2017-06-05T05:16:26.501Z,14.03
2017-06-05T05:17:26.822Z,14.06
2017-06-05T05:18:25.880Z,14.08
2017-06-05T05:19:26.327Z,14.11
2017-06-05T05:20:26.349Z,14.27
2017-06-05T05:21:25.994Z,14.28
2017-06-05T05:22:26.246Z,14.28
2017-06-05T05:23:26.175Z,14.45
2017-06-05T05:24:26.009Z,14.45
2017-06-05T05:25:25.978Z,14.56
2017-06-05T05:26:25.986Z,14.69
2017-06-05T05:27:26.159Z,14.86
2017-06-05T05:28:26.136Z,14.93
2017-06-05T05:29:26.277Z,15.02
2017-06-05T05:30:25.988Z,15.12
2017-06-05T05:31:26.287Z,15.2
2017-06-05T05:32:26.363Z,15.4
2017-06-05T05:33:26.264Z,15.37
2017-06-05T05:34:26.258Z,15.4
2017-06-05T05:35:25.939Z,15.51
2017-06-05T05:36:25.926Z,15.53
2017-06-05T05:37:25.926Z,15.62
2017-06-05T05:38:25.915Z,15.77
2017-06-05T05:39:26.251Z,15.91
2017-06-05T05:40:25.902Z,16.06
2017-06-05T05:41:26.222Z,16.17
2017-06-05T05:42:25.941Z,16.27
2017-06-05T05:43:25.898Z,16.29
2017-06-05T05:44:25.901Z,16.3
2017-06-05T05:45:26.247Z,16.32
2017-06-05T05:46:25.890Z,16.4
2017-06-05T05:47:26.209Z,16.4
2017-06-05T05:48:25.879Z,16.42
2017-06-05T05:49:26.205Z,16.37
2017-06-05T05:50:26.192Z,16.51
2017-06-05T05:51:25.547Z,16.51
2017-06-05T05:52:25.871Z,16.51
2017-06-05T05:53:26.219Z,16.57
2017-06-05T05:54:25.886Z,16.66
2017-06-05T05:55:25.854Z,16.72
2017-06-05T05:56:26.196Z,16.74
2017-06-05T05:57:25.848Z,16.77
2017-06-05T05:58:26.166Z,16.81
2017-06-05T05:59:26.167Z,16.88
2017-06-05T06:00:25.516Z,16.95
2017-06-05T06:01:25.849Z,17.03
2017-06-05T06:02:26.151Z,17.12
2017-06-05T06:03:26.153Z,17.13
2017-06-05T06:04:26.148Z,17.18
2017-06-05T06:05:26.144Z,17.25
2017-06-05T06:06:25.817Z,17.27
2017-06-05T06:07:26.159Z,17.22
2017-06-05T06:08:25.816Z,17.38
2017-06-05T06:09:25.813Z,17.38
2017-06-05T06:10:26.131Z,17.54
2017-06-05T06:11:25.813Z,17.6
2017-06-05T06:12:25.805Z,17.58
2017-06-05T06:13:25.834Z,17.66
2017-06-05T06:14:26.121Z,17.74
2017-06-05T06:15:25.471Z,17.8
2017-06-05T06:16:26.295Z,17.86
2017-06-05T06:17:25.508Z,17.95
2017-06-05T06:18:25.957Z,17.95
2017-06-05T06:19:26.264Z,18.08
2017-06-05T06:20:25.921Z,18.06
2017-06-05T06:21:26.213Z,17.98
2017-06-05T06:22:26.329Z,18.06
2017-06-05T06:23:26.270Z,18.21
2017-06-05T06:24:26.141Z,18.23
2017-06-05T06:25:26.331Z,18.2
2017-06-05T06:26:25.811Z,18.32
2017-06-05T06:27:26.140Z,18.38
2017-06-05T06:28:26.275Z,18.51
2017-06-05T06:29:26.449Z,18.47
2017-06-05T06:30:25.602Z,18.44
2017-06-05T06:31:25.518Z,18.49
2017-06-05T06:32:25.875Z,18.47
2017-06-05T06:33:26.282Z,18.51
2017-06-05T06:34:26.192Z,18.66
2017-06-05T06:35:25.984Z,18.65
2017-06-05T06:36:25.460Z,18.66
2017-06-05T06:37:26.161Z,18.56
2017-06-05T06:38:25.888Z,18.71
2017-06-05T06:39:25.874Z,18.76
2017-06-05T06:40:25.532Z,18.68
2017-06-05T06:41:26.208Z,18.81
2017-06-05T06:42:25.581Z,18.84
2017-06-05T06:43:25.879Z,18.93
2017-06-05T06:44:26.183Z,19
2017-06-05T06:45:26.226Z,19.07
2017-06-05T06:46:26.002Z,19.19
2017-06-05T06:47:26.574Z,19.27
2017-06-05T06:48:26.136Z,19.31
2017-06-05T06:49:25.506Z,19.37
2017-06-05T06:50:26.220Z,19.45
2017-06-05T06:51:26.003Z,19.43
2017-06-05T06:52:25.912Z,19.46
2017-06-05T06:53:25.900Z,19.42
2017-06-05T06:54:26.180Z,19.53
2017-06-05T06:55:25.881Z,19.53
2017-06-05T06:56:25.553Z,19.49
2017-06-05T06:57:26.209Z,19.53
2017-06-05T06:58:26.154Z,19.63
2017-06-05T06:59:26.382Z,19.82
2017-06-05T07:00:26.219Z,19.87
2017-06-05T07:01:25.827Z,19.83
2017-06-05T07:02:26.201Z,19.83
2017-06-05T07:03:26.219Z,19.7
2017-06-05T07:04:25.600Z,19.5
2017-06-05T07:05:25.956Z,19.52
2017-06-05T07:06:26.087Z,19.5
2017-06-05T07:07:26.281Z,19.5
2017-06-05T07:08:26.147Z,19.52
2017-06-05T07:09:25.781Z,19.5
2017-06-05T07:10:25.860Z,19.49
2017-06-05T07:11:25.827Z,19.53
2017-06-05T07:12:25.841Z,19.5
2017-06-05T07:13:26.221Z,19.6
2017-06-05T07:14:25.873Z,19.6
2017-06-05T07:15:25.461Z,19.61
2017-06-05T07:16:25.884Z,19.72
2017-06-05T07:17:25.913Z,19.87
2017-06-05T07:18:26.137Z,19.98
2017-06-05T07:19:26.129Z,19.95
2017-06-05T07:20:26.049Z,20.02
2017-06-05T07:21:26.064Z,20.08
2017-06-05T07:22:26.046Z,20.11
2017-06-05T07:23:26.051Z,20.18
2017-06-05T07:24:26.068Z,20.19
2017-06-05T07:25:26.050Z,20.27
2017-06-05T07:26:26.061Z,20.4
2017-06-05T07:27:26.054Z,20.46
2017-06-05T07:28:25.742Z,20.64
2017-06-05T07:29:25.744Z,20.76
2017-06-05T07:30:25.740Z,21.04
2017-06-05T07:31:26.061Z,21.21
2017-06-05T07:32:26.061Z,21.28
2017-06-05T07:33:25.731Z,21.31
2017-06-05T07:34:26.069Z,21.49
2017-06-05T07:35:26.054Z,21.61
2017-06-05T07:36:26.083Z,21.74
2017-06-05T07:37:26.048Z,21.97
2017-06-05T07:38:26.050Z,22.14
2017-06-05T07:39:26.057Z,22.3
2017-06-05T07:40:26.052Z,22.46
2017-06-05T07:41:25.750Z,22.55
2017-06-05T07:42:26.058Z,22.55
2017-06-05T07:43:25.417Z,22.41
2017-06-05T07:44:25.767Z,22.54
2017-06-05T07:45:26.053Z,22.69
2017-06-05T07:46:25.417Z,22.73
2017-06-05T07:47:26.060Z,22.91
2017-06-05T07:48:25.751Z,23
2017-06-05T07:49:25.755Z,23.15
2017-06-05T07:50:25.740Z,23.18
2017-06-05T07:51:25.437Z,23.32
2017-06-05T07:52:25.739Z,23.52
2017-06-05T07:53:25.745Z,23.59
2017-06-05T07:54:25.437Z,23.7
2017-06-05T07:55:26.074Z,23.77
2017-06-05T07:56:25.789Z,23.94
2017-06-05T07:57:25.763Z,24.02
2017-06-05T07:58:25.752Z,24.18
2017-06-05T07:59:26.083Z,24.17
2017-06-05T08:00:25.759Z,24.14
2017-06-05T08:01:25.444Z,24.19
2017-06-05T08:02:26.081Z,24.21
2017-06-05T08:03:25.779Z,24.19
2017-06-05T08:04:26.107Z,23.97
2017-06-05T08:05:26.095Z,23.9
2017-06-05T08:06:26.104Z,23.59
2017-06-05T08:07:25.453Z,23.29
2017-06-05T08:08:25.775Z,23
2017-06-05T08:09:26.103Z,22.76
2017-06-05T08:10:25.458Z,22.52
2017-06-05T08:11:26.113Z,22.23
2017-06-05T08:12:26.141Z,22.05
2017-06-05T08:13:25.504Z,21.76
2017-06-05T08:14:26.117Z,21.51
2017-06-05T08:15:25.797Z,21.36
2017-06-05T08:16:25.486Z,21.18
2017-06-05T08:17:25.797Z,21
2017-06-05T08:18:26.136Z,21.01
2017-06-05T08:19:25.484Z,20.91
2017-06-05T08:20:25.807Z,20.9
2017-06-05T08:21:25.806Z,20.83
2017-06-05T08:22:25.474Z,20.72
2017-06-05T08:23:26.128Z,20.56
2017-06-05T08:24:25.805Z,20.6
2017-06-05T08:25:26.135Z,20.6
2017-06-05T08:26:25.808Z,20.56
2017-06-05T08:27:26.127Z,20.49
2017-06-05T08:28:26.130Z,20.54
2017-06-05T08:29:26.128Z,20.53
2017-06-05T08:30:26.124Z,20.61
2017-06-05T08:31:25.812Z,20.48
2017-06-05T08:32:25.823Z,20.49
2017-06-05T08:33:25.814Z,20.48
2017-06-05T08:34:26.165Z,20.46
2017-06-05T08:35:25.808Z,20.6
2017-06-05T08:36:25.810Z,20.67
2017-06-05T08:37:25.504Z,20.61
2017-06-05T08:38:25.810Z,20.78
2017-06-05T08:39:25.812Z,20.76
2017-06-05T08:40:25.831Z,20.94
2017-06-05T08:41:26.135Z,20.94
2017-06-05T08:42:26.142Z,21.03
2017-06-05T08:43:26.165Z,21.09
2017-06-05T08:44:25.823Z,21.13
2017-06-05T08:45:25.819Z,21.21
2017-06-05T08:46:26.141Z,21.18
2017-06-05T08:47:25.509Z,21.18
2017-06-05T08:48:26.189Z,21.15
2017-06-05T08:49:25.822Z,21.08
2017-06-05T08:50:26.141Z,20.93
2017-06-05T08:51:26.164Z,20.88
2017-06-05T08:52:26.159Z,20.83
2017-06-05T08:53:25.824Z,20.86
2017-06-05T08:54:25.504Z,20.91
2017-06-05T08:55:25.506Z,20.82
2017-06-05T08:56:25.831Z,20.75
2017-06-05T08:57:25.825Z,20.57
2017-06-05T08:58:25.845Z,20.46
2017-06-05T08:59:25.832Z,20.49
2017-06-05T09:00:25.841Z,20.48
2017-06-05T09:01:26.161Z,20.51
2017-06-05T09:02:25.845Z,20.42
2017-06-05T09:03:26.162Z,20.48
2017-06-05T09:04:26.156Z,20.58
2017-06-05T09:05:26.161Z,20.58
2017-06-05T09:06:25.845Z,20.46
2017-06-05T09:07:26.167Z,20.49
2017-06-05T09:08:25.858Z,20.51
2017-06-05T09:09:26.160Z,20.58
2017-06-05T09:10:25.837Z,20.66
2017-06-05T09:11:25.850Z,20.72
2017-06-05T09:12:26.153Z,20.72
2017-06-05T09:13:26.169Z,20.83
2017-06-05T09:14:25.876Z,20.93
2017-06-05T09:15:26.181Z,20.98
2017-06-05T09:16:26.160Z,21
2017-06-05T09:17:25.835Z,21.16
2017-06-05T09:18:25.854Z,21.16
2017-06-05T09:19:25.836Z,21.09
2017-06-05T09:20:25.838Z,21.12
2017-06-05T09:21:26.166Z,21.22
2017-06-05T09:22:25.839Z,21.3
2017-06-05T09:23:26.185Z,21.3
2017-06-05T09:24:25.838Z,21.23
2017-06-05T09:25:26.189Z,21.28
2017-06-05T09:26:26.163Z,21.46
2017-06-05T09:27:26.181Z,21.45
2017-06-05T09:28:25.858Z,21.64
2017-06-05T09:29:25.844Z,21.68
2017-06-05T09:30:25.846Z,21.86
2017-06-05T09:31:26.167Z,22
2017-06-05T09:32:25.846Z,21.96
2017-06-05T09:33:25.847Z,22.15
2017-06-05T09:34:26.179Z,22.16
2017-06-05T09:35:25.543Z,22.14
2017-06-05T09:36:25.849Z,22.23
2017-06-05T09:37:25.853Z,22.41
2017-06-05T09:38:25.857Z,22.39
2017-06-05T09:39:26.197Z,22.64
2017-06-05T09:40:25.908Z,22.52
2017-06-05T09:41:26.194Z,22.63
2017-06-05T09:42:26.192Z,22.52
2017-06-05T09:43:25.869Z,22.64
2017-06-05T09:44:26.211Z,22.76
2017-06-05T09:45:26.187Z,22.82
2017-06-05T09:46:25.897Z,22.86
2017-06-05T09:47:25.869Z,22.89
2017-06-05T09:48:26.190Z,23.01
2017-06-05T09:49:26.209Z,22.99
2017-06-05T09:50:25.871Z,23
2017-06-05T09:51:26.198Z,22.82
2017-06-05T09:52:26.215Z,22.71
2017-06-05T09:53:26.229Z,22.78
2017-06-05T09:54:25.896Z,22.89
2017-06-05T09:55:25.912Z,22.91
2017-06-05T09:56:26.225Z,23.01
2017-06-05T09:57:25.908Z,22.92
2017-06-05T09:58:25.887Z,22.88
2017-06-05T09:59:26.222Z,22.92
2017-06-05T10:00:25.576Z,22.97
2017-06-05T10:01:26.225Z,23
2017-06-05T10:02:25.569Z,23.06
2017-06-05T10:03:26.224Z,23.04
2017-06-05T10:04:26.232Z,22.91
2017-06-05T10:05:26.244Z,22.73
2017-06-05T10:06:25.907Z,22.61
2017-06-05T10:07:25.923Z,22.69
2017-06-05T10:08:26.255Z,22.52
2017-06-05T10:09:25.910Z,22.51
2017-06-05T10:10:26.232Z,22.46
2017-06-05T10:11:25.920Z,22.41
2017-06-05T10:12:26.255Z,22.42
2017-06-05T10:13:25.919Z,22.48
2017-06-05T10:14:25.933Z,22.6
2017-06-05T10:15:25.923Z,22.76
2017-06-05T10:16:26.264Z,22.85
2017-06-05T10:17:26.246Z,23.01
2017-06-05T10:18:26.256Z,23.22
2017-06-05T10:19:26.275Z,23.28
2017-06-05T10:20:25.930Z,23.35
2017-06-05T10:21:25.937Z,23.41
2017-06-05T10:22:25.974Z,23.5
2017-06-05T10:23:25.939Z,23.5
2017-06-05T10:24:26.292Z,23.53
2017-06-05T10:25:26.287Z,23.53
2017-06-05T10:26:26.305Z,23.48
2017-06-05T10:27:26.291Z,23.59
2017-06-05T10:28:26.270Z,23.72
2017-06-05T10:29:25.951Z,23.74
2017-06-05T10:30:25.952Z,23.77
2017-06-05T10:31:26.281Z,23.75
2017-06-05T10:32:25.960Z,23.82
2017-06-05T10:33:25.684Z,23.82
2017-06-05T10:34:26.302Z,23.81
2017-06-05T10:35:26.289Z,23.92
2017-06-05T10:36:26.306Z,23.85
2017-06-05T10:37:26.293Z,23.79
2017-06-05T10:38:26.294Z,23.74
2017-06-05T10:39:26.321Z,23.79
2017-06-05T10:40:25.980Z,23.87
2017-06-05T10:41:25.981Z,23.89
2017-06-05T10:42:26.011Z,23.99
2017-06-05T10:43:32.313Z,23.96
2017-06-05T10:44:26.342Z,24.07
2017-06-05T10:45:26.026Z,24.17
2017-06-05T10:46:26.507Z,24.22
2017-06-05T10:47:26.115Z,24.22
2017-06-05T10:48:26.240Z,24.26
2017-06-05T10:49:26.123Z,24.29
2017-06-05T10:50:26.048Z,24.22
2017-06-05T10:51:26.090Z,24.15
2017-06-05T10:52:26.105Z,24
2017-06-05T10:53:26.094Z,23.9
2017-06-05T10:54:26.135Z,23.85
2017-06-05T10:55:25.798Z,23.84
2017-06-05T10:56:26.110Z,23.85
2017-06-05T10:57:26.477Z,24.04
2017-06-05T10:58:26.123Z,24.11
2017-06-05T10:59:26.133Z,24.09
2017-06-05T11:00:26.426Z,24.07
2017-06-05T11:01:26.509Z,24.18
2017-06-05T11:02:26.603Z,24.17
2017-06-05T11:03:26.104Z,24.21
2017-06-05T11:04:26.261Z,24.24
2017-06-05T11:05:26.524Z,24.32
2017-06-05T11:06:26.425Z,24.32
2017-06-05T11:07:25.913Z,24.32
2017-06-05T11:08:26.219Z,24.33
2017-06-05T11:09:26.076Z,24.36
2017-06-05T11:10:26.254Z,24.42
2017-06-05T11:11:26.546Z,24.55
2017-06-05T11:12:25.954Z,24.64
2017-06-05T11:13:26.532Z,24.56
2017-06-05T11:14:26.530Z,24.54
2017-06-05T11:15:25.858Z,24.44
2017-06-05T11:16:26.283Z,24.39
2017-06-05T11:17:26.570Z,24.45
2017-06-05T11:18:26.173Z,24.42
2017-06-05T11:19:25.997Z,24.45
2017-06-05T11:20:26.232Z,24.55
2017-06-05T11:21:26.190Z,24.67
2017-06-05T11:22:25.790Z,24.7
2017-06-05T11:23:26.251Z,24.58
2017-06-05T11:24:25.897Z,24.63
2017-06-05T11:25:26.522Z,24.61
2017-06-05T11:26:27.268Z,24.64
2017-06-05T11:27:26.225Z,24.49
2017-06-05T11:28:26.176Z,24.54
2017-06-05T11:29:26.260Z,24.66
2017-06-05T11:30:26.599Z,24.67
2017-06-05T11:31:25.917Z,24.69
2017-06-05T11:32:26.335Z,24.66
2017-06-05T11:33:26.652Z,24.61
2017-06-05T11:34:26.244Z,24.61
2017-06-05T11:35:25.903Z,24.61
2017-06-05T11:36:26.623Z,24.42
2017-06-05T11:37:26.595Z,24.46
2017-06-05T11:38:26.252Z,24.39
2017-06-05T11:39:25.942Z,24.42
2017-06-05T11:40:26.549Z,24.45
2017-06-05T11:41:26.302Z,24.44
2017-06-05T11:42:26.291Z,24.45
2017-06-05T11:43:26.713Z,24.29
2017-06-05T11:44:26.249Z,24.27
2017-06-05T11:45:26.592Z,24.08
2017-06-05T11:46:27.454Z,24.07
2017-06-05T11:47:26.540Z,24.03
2017-06-05T11:48:26.307Z,23.97
2017-06-05T11:49:26.302Z,23.89
2017-06-05T11:50:26.650Z,23.94
2017-06-05T11:51:26.271Z,23.75
2017-06-05T11:52:26.607Z,23.78
2017-06-05T11:53:27.065Z,23.77
2017-06-05T11:54:26.441Z,23.78
2017-06-05T11:55:26.250Z,23.78
2017-06-05T11:56:26.373Z,23.77
2017-06-05T11:57:28.259Z,23.71
2017-06-05T11:58:29.064Z,23.59
2017-06-05T11:59:26.615Z,23.52
2017-06-05T12:00:26.381Z,23.5
2017-06-05T12:01:26.985Z,23.48
2017-06-05T12:02:26.764Z,23.42
2017-06-05T12:03:26.379Z,23.26
2017-06-05T12:04:25.986Z,23.24
2017-06-05T12:05:26.381Z,23.21
2017-06-05T12:06:26.701Z,23.07
2017-06-05T12:07:26.701Z,23.14
2017-06-05T12:08:26.810Z,22.99
2017-06-05T12:09:26.464Z,23.03
2017-06-05T12:10:26.816Z,22.91
2017-06-05T12:11:26.380Z,22.75
2017-06-05T12:12:26.713Z,22.78
2017-06-05T12:13:26.374Z,22.6
2017-06-05T12:14:26.720Z,22.44
2017-06-05T12:15:26.746Z,22.39
2017-06-05T12:16:26.098Z,22.31
2017-06-05T12:17:26.741Z,22.16
2017-06-05T12:18:26.782Z,22.04
2017-06-05T12:19:26.701Z,22.08
2017-06-05T12:20:26.810Z,22.02
2017-06-05T12:21:26.123Z,21.96
2017-06-05T12:22:26.036Z,21.86
2017-06-05T12:23:26.467Z,22
2017-06-05T12:24:26.855Z,21.78
2017-06-05T12:25:26.440Z,21.76
2017-06-05T12:26:26.732Z,21.74
2017-06-05T12:27:26.396Z,21.62
2017-06-05T12:28:26.725Z,21.74
2017-06-05T12:29:27.200Z,21.64
2017-06-05T12:30:26.788Z,21.66
2017-06-05T12:31:26.502Z,21.61
2017-06-05T12:32:26.787Z,21.59
2017-06-05T12:33:26.796Z,21.59
2017-06-05T12:34:26.407Z,21.45
2017-06-05T12:35:26.834Z,21.37
2017-06-05T12:36:26.852Z,21.25
2017-06-05T12:37:26.804Z,21.28
2017-06-05T12:38:26.465Z,21.28
2017-06-05T12:39:26.048Z,21.15
2017-06-05T12:40:26.391Z,21.04
2017-06-05T12:41:26.161Z,21.04
2017-06-05T12:42:26.380Z,20.91
2017-06-05T12:43:26.374Z,20.83
2017-06-05T12:44:26.725Z,20.78
2017-06-05T12:45:26.883Z,20.94
2017-06-05T12:46:26.362Z,20.81
2017-06-05T12:47:26.808Z,20.91
2017-06-05T12:48:26.472Z,20.86
2017-06-05T12:49:26.411Z,20.91
2017-06-05T12:50:26.670Z,20.98
2017-06-05T12:51:26.535Z,21.09
2017-06-05T12:52:26.871Z,21.19
2017-06-05T12:53:26.341Z,21.18
2017-06-05T12:54:26.181Z,21.23
2017-06-05T12:55:28.111Z,21.48
2017-06-05T12:56:26.525Z,21.46
2017-06-05T12:57:26.663Z,21.55
2017-06-05T12:58:26.688Z,21.67
2017-06-05T12:59:26.362Z,21.78
2017-06-05T13:00:26.328Z,21.76
2017-06-05T13:01:26.333Z,21.96
2017-06-05T13:02:26.661Z,22.07
2017-06-05T13:03:26.666Z,22.12